createdAt,value
2023-04-15T00:03:02.921Z,10.50
2023-04-15T00:06:06.723Z,10.40
2023-04-15T00:09:10.135Z,10.30
2023-04-15T00:12:13.788Z,10.47
2023-04-15T00:15:21.472Z,10.37
2023-04-15T00:18:26.164Z,10.40
2023-04-15T00:21:29.822Z,10.47
2023-04-15T00:24:33.343Z,10.57
2023-04-15T00:27:36.966Z,10.56
2023-04-15T00:30:41.890Z,10.60
2023-04-15T00:33:45.797Z,10.61
2023-04-15T00:36:49.215Z,10.60
2023-04-15T00:39:52.642Z,10.59
2023-04-15T00:42:56.258Z,10.68
2023-04-15T00:46:02.944Z,10.78
2023-04-15T00:49:08.196Z,10.70
2023-04-15T00:52:11.745Z,10.80
2023-04-15T00:55:15.298Z,10.61
2023-04-15T00:58:19.771Z,10.66
2023-04-15T01:01:26.899Z,10.65
2023-04-15T01:04:30.905Z,10.65
2023-04-15T01:07:36.374Z,10.65
2023-04-15T01:10:41.331Z,10.72
2023-04-15T01:13:45.118Z,10.65
2023-04-15T01:16:51.153Z,10.71
2023-04-15T01:19:56.920Z,10.75
2023-04-15T01:23:01.159Z,10.71
2023-04-15T01:26:07.307Z,10.81
2023-04-15T01:29:11.018Z,10.83
2023-04-15T01:32:17.854Z,10.74
2023-04-15T01:35:40.219Z,10.70
2023-04-15T01:38:43.823Z,10.68
2023-04-15T01:41:49.051Z,10.64
2023-04-15T01:44:55.012Z,10.80
2023-04-15T01:47:59.654Z,10.76
2023-04-15T01:51:04.361Z,10.84
2023-04-15T01:54:09.070Z,10.65
2023-04-15T01:57:15.320Z,10.81
2023-04-15T02:00:23.264Z,10.68
2023-04-15T02:03:30.792Z,10.82
2023-04-15T02:06:36.509Z,10.78
2023-04-15T02:09:41.088Z,10.79
2023-04-15T02:12:48.395Z,10.72
2023-04-15T02:15:54.068Z,10.88
2023-04-15T02:18:58.796Z,10.89
2023-04-15T02:22:03.455Z,10.92
2023-04-15T02:25:09.613Z,10.98
2023-04-15T02:28:16.005Z,10.81
2023-04-15T02:31:23.230Z,10.73
2023-04-15T02:34:28.221Z,10.55
2023-04-15T02:37:40.955Z,10.57
2023-04-15T02:40:49.873Z,10.69
2023-04-15T02:43:56.198Z,10.53
2023-04-15T02:47:00.855Z,10.55
2023-04-15T02:50:07.184Z,10.71
2023-04-15T02:53:12.070Z,10.56
2023-04-15T02:56:17.566Z,10.47
2023-04-15T02:59:24.020Z,10.52
2023-04-15T03:02:29.084Z,10.26
2023-04-15T03:05:34.539Z,10.10
2023-04-15T03:08:41.977Z,9.70
2023-04-15T03:11:47.109Z,9.71
2023-04-15T03:14:53.236Z,9.40
2023-04-15T03:18:03.235Z,9.39
2023-04-15T03:21:08.270Z,9.29
2023-04-15T03:24:15.942Z,9.22
2023-04-15T03:27:22.174Z,9.02
2023-04-15T03:30:28.412Z,8.93
2023-04-15T03:33:33.501Z,8.95
2023-04-15T03:36:38.369Z,8.83
2023-04-15T03:39:43.012Z,8.98
2023-04-15T03:42:47.572Z,8.69
2023-04-15T03:45:53.812Z,8.68
2023-04-15T03:48:58.712Z,8.54
2023-04-15T03:52:03.473Z,8.45
2023-04-15T03:55:09.485Z,8.37
2023-04-15T03:58:14.150Z,8.26
2023-04-15T04:01:20.348Z,8.65
2023-04-15T04:04:25.435Z,8.34
2023-04-15T04:07:30.129Z,8.26
2023-04-15T04:10:35.048Z,8.18
2023-04-15T04:13:40.027Z,8.08
2023-04-15T04:16:46.144Z,8.03
2023-04-15T04:19:51.185Z,8.20
2023-04-15T04:22:56.638Z,8.12
2023-04-15T04:26:01.292Z,8.17
2023-04-15T04:29:06.600Z,8.13
2023-04-15T04:32:12.775Z,8.24
2023-04-15T04:35:17.555Z,8.09
2023-04-15T04:38:22.426Z,8.15
2023-04-15T04:41:27.242Z,7.89
2023-04-15T04:44:31.827Z,8.02
2023-04-15T04:47:37.875Z,7.90
2023-04-15T04:50:42.502Z,7.92
2023-04-15T04:53:47.110Z,7.83
2023-04-15T04:56:51.781Z,7.59
2023-04-15T04:59:56.345Z,7.70
2023-04-15T05:03:02.537Z,7.61
2023-04-15T05:06:08.911Z,7.90
2023-04-15T05:09:13.661Z,7.78
2023-04-15T05:12:18.479Z,7.84
2023-04-15T05:15:23.453Z,8.00
2023-04-15T05:18:29.454Z,8.02
2023-04-15T05:21:34.043Z,8.01
2023-04-15T05:24:38.780Z,8.09
2023-04-15T05:27:43.430Z,8.01
2023-04-15T05:30:48.256Z,8.12
2023-04-15T05:33:55.021Z,8.29
2023-04-15T05:36:59.601Z,8.46
2023-04-15T05:40:04.763Z,8.52
2023-04-15T05:43:11.250Z,8.46
2023-04-15T05:46:16.266Z,8.09
2023-04-15T05:49:22.258Z,8.22
2023-04-15T05:52:27.481Z,8.23
2023-04-15T05:55:32.226Z,8.64
2023-04-15T05:58:37.064Z,8.46
2023-04-15T06:01:41.756Z,8.23
2023-04-15T06:04:48.124Z,8.11
2023-04-15T06:07:52.883Z,8.09
2023-04-15T06:10:57.630Z,8.17
2023-04-15T06:14:02.152Z,8.38
2023-04-15T06:17:09.822Z,8.61
2023-04-15T06:20:16.215Z,8.70
2023-04-15T06:23:21.082Z,8.54
2023-04-15T06:26:26.682Z,8.28
2023-04-15T06:29:31.647Z,8.30
2023-04-15T06:32:36.475Z,8.39
2023-04-15T06:35:42.731Z,8.34
2023-04-15T06:38:47.334Z,8.27
2023-04-15T06:41:52.488Z,8.27
2023-04-15T06:44:59.248Z,8.51
2023-04-15T06:48:03.793Z,8.60
2023-04-15T06:51:09.937Z,8.56
2023-04-15T06:54:14.831Z,8.76
2023-04-15T06:57:19.456Z,8.84
2023-04-15T07:00:24.495Z,8.66
2023-04-15T07:03:31.441Z,8.75
2023-04-15T07:06:38.934Z,8.80
2023-04-15T07:09:43.622Z,9.00
2023-04-15T07:12:50.863Z,9.21
2023-04-15T07:15:55.546Z,9.23
2023-04-15T07:19:00.522Z,9.24
2023-04-15T07:22:07.047Z,9.50
2023-04-15T07:25:11.901Z,9.48
2023-04-15T07:28:16.578Z,9.61
2023-04-15T07:31:21.539Z,9.56
2023-04-15T07:34:26.452Z,9.70
2023-04-15T07:37:32.458Z,10.07
2023-04-15T07:40:37.115Z,10.23
2023-04-15T07:43:41.665Z,10.08
2023-04-15T07:46:46.742Z,10.60
2023-04-15T07:49:51.663Z,10.72
2023-04-15T07:52:57.902Z,10.87
2023-04-15T07:56:02.935Z,10.95
2023-04-15T07:59:10.974Z,10.80
2023-04-15T08:02:16.088Z,10.82
2023-04-15T08:05:22.286Z,10.74
2023-04-15T08:08:36.007Z,10.87
2023-04-15T08:11:40.879Z,11.08
2023-04-15T08:14:45.986Z,11.47
2023-04-15T08:17:50.833Z,11.62
2023-04-15T08:20:56.145Z,11.51
2023-04-15T08:24:03.406Z,11.28
2023-04-15T08:27:08.734Z,11.20
2023-04-15T08:30:14.160Z,11.82
2023-04-15T08:33:18.872Z,11.57
2023-04-15T08:36:24.297Z,11.56
2023-04-15T08:39:30.338Z,12.04
2023-04-15T08:42:45.017Z,12.13
2023-04-15T08:45:51.992Z,11.91
2023-04-15T08:48:58.804Z,12.62
2023-04-15T08:52:04.896Z,12.47
2023-04-15T08:55:13.606Z,13.08
2023-04-15T08:58:19.007Z,13.58
2023-04-15T09:01:24.580Z,13.53
2023-04-15T09:04:29.813Z,12.82
2023-04-15T09:07:36.662Z,13.20
2023-04-15T09:10:45.286Z,13.65
2023-04-15T09:13:50.738Z,13.29
2023-04-15T09:16:58.947Z,12.83
2023-04-15T09:20:13.154Z,12.97
2023-04-15T09:23:18.156Z,13.42
2023-04-15T09:26:32.306Z,13.28
2023-04-15T09:29:37.332Z,13.56
2023-04-15T09:32:51.430Z,14.22
2023-04-15T09:36:01.581Z,14.16
2023-04-15T09:39:07.441Z,13.85
2023-04-15T09:42:13.445Z,13.93
2023-04-15T09:45:18.158Z,14.23
2023-04-15T09:48:26.992Z,14.02
2023-04-15T09:51:36.785Z,13.77
2023-04-15T09:54:41.724Z,13.97
2023-04-15T09:57:48.573Z,13.87
2023-04-15T10:00:54.317Z,13.66
2023-04-15T10:03:59.530Z,13.53
2023-04-15T10:07:06.774Z,13.47
2023-04-15T10:10:12.491Z,14.34
2023-04-15T10:13:20.806Z,14.17
2023-04-15T10:16:28.702Z,14.00
2023-04-15T10:19:35.287Z,14.40
2023-04-15T10:22:40.229Z,14.93
2023-04-15T10:25:45.113Z,14.70
2023-04-15T10:28:51.374Z,14.91
2023-04-15T10:31:57.092Z,14.79
2023-04-15T10:35:04.373Z,14.34
2023-04-15T10:38:34.733Z,13.95
2023-04-15T10:41:39.587Z,14.09
2023-04-15T10:44:53.499Z,13.83
2023-04-15T10:47:59.996Z,14.09
2023-04-15T10:51:09.801Z,14.16
2023-04-15T10:54:16.884Z,13.74
2023-04-15T10:57:24.929Z,13.97
2023-04-15T11:00:32.914Z,14.03
2023-04-15T11:03:42.337Z,14.22
2023-04-15T11:06:47.384Z,14.52
2023-04-15T11:09:54.294Z,15.25
2023-04-15T11:13:04.440Z,14.95
2023-04-15T11:16:12.968Z,15.84
2023-04-15T11:19:17.759Z,15.97
2023-04-15T11:22:22.666Z,15.25
2023-04-15T11:25:29.122Z,14.50
2023-04-15T11:28:36.262Z,14.95
2023-04-15T11:31:43.192Z,14.47
2023-04-15T11:34:49.603Z,14.52
2023-04-15T11:37:56.384Z,14.67
2023-04-15T11:41:02.090Z,14.88
2023-04-15T11:44:18.068Z,15.74
2023-04-15T11:47:40.137Z,16.19
2023-04-15T11:50:44.892Z,15.99
2023-04-15T11:53:50.620Z,15.93
2023-04-15T11:56:54.862Z,15.01
2023-04-15T11:59:59.481Z,15.42
2023-04-15T12:03:20.980Z,16.16
2023-04-15T12:06:28.030Z,16.16
2023-04-15T12:09:32.430Z,16.40
2023-04-15T12:12:35.970Z,15.77
2023-04-15T12:15:41.708Z,15.51
2023-04-15T12:18:48.772Z,15.66
2023-04-15T12:22:01.839Z,15.74
2023-04-15T12:25:06.911Z,15.69
2023-04-15T12:28:15.700Z,15.70
2023-04-15T12:31:22.407Z,15.61
2023-04-15T12:34:34.245Z,15.26
2023-04-15T12:37:37.653Z,15.43
2023-04-15T12:40:41.101Z,15.24
2023-04-15T12:43:47.351Z,15.45
2023-04-15T12:46:51.362Z,14.92
2023-04-15T12:49:56.264Z,15.37
2023-04-15T12:53:00.271Z,15.06
2023-04-15T12:56:05.697Z,15.10
2023-04-15T12:59:09.197Z,15.53
2023-04-15T13:02:12.746Z,15.46
2023-04-15T13:05:17.717Z,15.62
2023-04-15T13:08:21.219Z,15.87
2023-04-15T13:11:25.602Z,15.94
2023-04-15T13:14:29.299Z,15.82
2023-04-15T13:17:34.555Z,15.61
2023-04-15T13:20:39.332Z,15.04
2023-04-15T13:23:43.289Z,14.88
2023-04-15T13:26:50.375Z,14.85
2023-04-15T13:29:59.299Z,14.63
2023-04-15T13:33:03.204Z,14.54
2023-04-15T13:36:08.480Z,14.18
2023-04-15T13:39:11.885Z,13.96
2023-04-15T13:42:15.454Z,13.73
2023-04-15T13:45:18.933Z,14.10
2023-04-15T13:48:22.415Z,13.93
2023-04-15T13:51:27.338Z,13.70
2023-04-15T13:54:37.139Z,13.67
2023-04-15T13:57:43.601Z,13.75
2023-04-15T14:00:47.317Z,13.81
2023-04-15T14:03:50.847Z,13.70
2023-04-15T14:06:58.660Z,13.79
2023-04-15T14:10:02.769Z,13.57
2023-04-15T14:13:06.459Z,13.51
2023-04-15T14:16:09.953Z,13.59
2023-04-15T14:19:13.518Z,13.62
2023-04-15T14:22:19.261Z,14.75
2023-04-15T14:25:32.795Z,15.24
2023-04-15T14:28:38.744Z,15.21
2023-04-15T14:31:42.798Z,15.92
2023-04-15T14:35:07.353Z,15.65
2023-04-15T14:38:12.445Z,15.21
2023-04-15T14:41:16.270Z,15.27
2023-04-15T14:44:19.845Z,15.11
2023-04-15T14:47:23.668Z,14.53
2023-04-15T14:50:27.357Z,14.31
2023-04-15T14:53:32.429Z,14.32
2023-04-15T14:56:38.718Z,14.18
2023-04-15T14:59:42.726Z,13.88
2023-04-15T15:02:48.628Z,13.74
2023-04-15T15:05:52.377Z,13.80
2023-04-15T15:08:57.564Z,13.60
2023-04-15T15:12:01.981Z,13.53
2023-04-15T15:15:15.536Z,13.50
2023-04-15T15:18:25.656Z,13.28
2023-04-15T15:21:29.025Z,13.25
2023-04-15T15:24:34.947Z,13.32
2023-04-15T15:27:38.561Z,13.25
2023-04-15T15:30:42.336Z,13.24
2023-04-15T15:33:46.411Z,13.08
2023-04-15T15:36:50.101Z,13.14
2023-04-15T15:39:55.575Z,13.20
2023-04-15T15:42:58.995Z,13.02
2023-04-15T15:46:05.735Z,13.10
2023-04-15T15:49:09.277Z,13.10
2023-04-15T15:52:13.050Z,13.14
2023-04-15T15:55:18.160Z,13.46
2023-04-15T15:58:21.668Z,13.17
2023-04-15T16:01:25.699Z,13.27
2023-04-15T16:04:29.550Z,13.24
2023-04-15T16:07:33.460Z,13.26
2023-04-15T16:10:42.231Z,13.15
2023-04-15T16:13:46.588Z,12.98
2023-04-15T16:16:50.054Z,13.15
2023-04-15T16:19:58.081Z,12.87
2023-04-15T16:23:10.311Z,12.97
2023-04-15T16:26:15.627Z,12.99
2023-04-15T16:29:19.208Z,12.73
2023-04-15T16:32:23.104Z,12.77
2023-04-15T16:35:26.691Z,12.60
2023-04-15T16:38:30.613Z,12.35
2023-04-15T16:41:35.914Z,12.34
2023-04-15T16:44:40.861Z,11.94
2023-04-15T16:47:45.239Z,11.76
2023-04-15T16:50:49.065Z,11.66
2023-04-15T16:53:52.713Z,11.65
2023-04-15T16:56:57.954Z,11.79
2023-04-15T17:00:01.805Z,11.62
2023-04-15T17:03:06.505Z,11.53
2023-04-15T17:06:10.265Z,11.43
2023-04-15T17:09:13.745Z,11.33
2023-04-15T17:12:18.836Z,11.37
2023-04-15T17:15:23.612Z,11.26
2023-04-15T17:18:37.209Z,11.04
2023-04-15T17:21:49.679Z,10.96
2023-04-15T17:24:57.582Z,10.72
2023-04-15T17:28:02.721Z,10.54
2023-04-15T17:31:07.458Z,10.34
2023-04-15T17:34:50.796Z,10.14
2023-04-15T17:38:14.647Z,9.98
2023-04-15T17:41:37.958Z,9.89
2023-04-15T17:45:03.153Z,9.84
2023-04-15T17:48:27.009Z,9.91
2023-04-15T17:51:50.524Z,9.96
2023-04-15T17:55:13.956Z,9.68
2023-04-15T17:58:39.402Z,9.78
2023-04-15T18:02:06.081Z,9.70
2023-04-15T18:05:29.605Z,9.59
2023-04-15T18:08:53.311Z,9.50
2023-04-15T18:12:16.687Z,9.47
2023-04-15T18:15:44.118Z,9.13
2023-04-15T18:19:11.433Z,9.14
2023-04-15T18:22:14.936Z,9.07
2023-04-15T18:25:18.551Z,9.12
2023-04-15T18:28:22.723Z,9.24
2023-04-15T18:31:26.902Z,9.14
2023-04-15T18:34:31.921Z,9.28
2023-04-15T18:37:35.516Z,9.26
2023-04-15T18:40:39.240Z,9.04
2023-04-15T18:43:43.820Z,8.82
2023-04-15T18:46:51.000Z,8.72
2023-04-15T18:49:59.734Z,8.88
2023-04-15T18:53:05.638Z,8.80
2023-04-15T18:56:09.053Z,8.67
2023-04-15T18:59:28.114Z,8.78
2023-04-15T19:02:33.406Z,8.49
2023-04-15T19:05:38.510Z,8.29
2023-04-15T19:08:42.117Z,8.43
2023-04-15T19:11:47.831Z,8.56
2023-04-15T19:14:53.588Z,8.60
2023-04-15T19:17:58.827Z,8.44
2023-04-15T19:21:04.183Z,8.46
2023-04-15T19:24:10.256Z,8.54
2023-04-15T19:27:16.785Z,8.47
2023-04-15T19:30:21.389Z,8.19
2023-04-15T19:33:27.466Z,8.31
2023-04-15T19:36:33.440Z,8.41
2023-04-15T19:39:36.946Z,8.26
2023-04-15T19:42:40.659Z,8.24
2023-04-15T19:45:45.725Z,8.38
2023-04-15T19:48:49.410Z,8.66
2023-04-15T19:51:54.286Z,8.65
2023-04-15T19:54:58.925Z,9.06
2023-04-15T19:58:02.606Z,8.81
2023-04-15T20:01:07.954Z,9.12
2023-04-15T20:04:11.830Z,8.93
2023-04-15T20:07:17.007Z,8.75
2023-04-15T20:10:22.983Z,8.72
2023-04-15T20:13:27.063Z,8.59
2023-04-15T20:16:30.522Z,8.69
2023-04-15T20:19:33.943Z,9.08
2023-04-15T20:22:41.300Z,8.76
2023-04-15T20:25:44.807Z,8.48
2023-04-15T20:28:48.549Z,8.40
2023-04-15T20:31:55.776Z,8.41
2023-04-15T20:35:00.022Z,8.19
2023-04-15T20:38:06.999Z,8.42
2023-04-15T20:41:13.550Z,8.20
2023-04-15T20:44:17.344Z,8.11
2023-04-15T20:47:21.166Z,7.88
2023-04-15T20:50:24.827Z,8.32
2023-04-15T20:53:29.639Z,8.85
2023-04-15T20:56:33.168Z,9.10
2023-04-15T20:59:36.838Z,8.86
2023-04-15T21:02:40.616Z,8.82
2023-04-15T21:05:44.036Z,8.54
2023-04-15T21:08:48.799Z,8.58
2023-04-15T21:12:01.199Z,8.40
2023-04-15T21:15:06.201Z,8.54
2023-04-15T21:18:09.564Z,8.34
2023-04-15T21:21:13.223Z,8.42
2023-04-15T21:24:18.222Z,8.63
2023-04-15T21:27:23.866Z,8.39
2023-04-15T21:30:29.363Z,8.05
2023-04-15T21:33:32.865Z,7.78
2023-04-15T21:36:39.630Z,8.10
2023-04-15T21:39:48.851Z,7.87
2023-04-15T21:42:52.769Z,8.09
2023-04-15T21:46:22.223Z,8.08
2023-04-15T21:49:21.595Z,7.97
2023-04-15T21:52:26.779Z,8.19
2023-04-15T21:55:31.918Z,8.02
2023-04-15T21:58:37.733Z,7.95
2023-04-15T22:01:43.457Z,7.97
2023-04-15T22:04:47.083Z,7.78
2023-04-15T22:07:54.352Z,7.65
2023-04-15T22:11:01.713Z,7.47
2023-04-15T22:14:06.561Z,7.53
2023-04-15T22:17:09.967Z,7.82
2023-04-15T22:20:13.482Z,7.67
2023-04-15T22:23:20.431Z,7.32
2023-04-15T22:26:25.429Z,7.49
2023-04-15T22:29:28.968Z,7.39
2023-04-15T22:32:32.442Z,7.19
2023-04-15T22:35:37.449Z,7.36
2023-04-15T22:38:41.161Z,7.33
2023-04-15T22:41:46.359Z,7.51
2023-04-15T22:44:54.102Z,7.44
2023-04-15T22:48:00.813Z,7.31
2023-04-15T22:51:07.479Z,7.22
2023-04-15T22:54:11.140Z,7.26
2023-04-15T22:57:15.918Z,7.17
2023-04-15T23:00:19.723Z,7.17
2023-04-15T23:03:23.365Z,7.10
2023-04-15T23:06:28.792Z,7.02
2023-04-15T23:09:32.531Z,6.96
2023-04-15T23:12:37.619Z,6.90
2023-04-15T23:15:41.280Z,6.78
2023-04-15T23:18:44.849Z,6.87
2023-04-15T23:21:48.983Z,6.76
2023-04-15T23:24:52.806Z,6.85
2023-04-15T23:27:57.747Z,6.78
2023-04-15T23:31:01.437Z,6.83
2023-04-15T23:34:05.713Z,6.92
2023-04-15T23:37:09.199Z,6.81
2023-04-15T23:40:16.127Z,6.80
2023-04-15T23:43:21.441Z,6.70
2023-04-15T23:46:24.984Z,6.73
2023-04-15T23:49:28.530Z,6.76
2023-04-15T23:52:32.093Z,6.84
2023-04-15T23:55:35.834Z,6.75
2023-04-15T23:58:40.668Z,7.13
